Pagrindinis puslapis
METAR-TAF:

METAR-TAF

Oro uostai :

Arakažu, Sergipe, Brazilija

platuma: 10-59S, ilguma: 037-04W, Aukštis: 8 m

Dabartinis oras

Ataskaita buvo paskelbta 1 valandą ir 7 minutes, ne 09:00 UTC
Vėjas 8 kt iš Rytų
Temperatūra 27°C
Drėgmė 79%
Slėgis 1013 hPa
Matomumas 10 km arba daugiau
Išsisklaidę debesys ne aukštis 1700 ft

METAR: SBAR 090900Z 08008KT 9999 SCT017 27/23 Q1013

Laikas: 07:07 (10:07 UTC)

Prognozė

Ataskaita buvo paskelbta 6 valandos ir 7 minutes, ne 04:00 UTC
Prognozė galioja nuo 09 metu 06 UTC su 10 metu 06 UTC
Vėjas 8 kt iš Šiaurės/Šiaurės Rytų
Matomumas 10 km arba daugiau
Mažai debesys ne aukštis 2000 ft
Tapsmas
nuo 09 metu 09 UTC su 09 metu 11 UTC
Vėjas 10 kt iš Rytų/Šiaurės Rytų
Tapsmas
nuo 09 metu 14 UTC su 09 metu 16 UTC
Vėjas 15 kt iš Rytų
Tapsmas
nuo 09 metu 21 UTC su 09 metu 23 UTC
Vėjas 10 kt iš Rytų/Šiaurės Rytų

TAF: SBAR 090400Z 0906/1006 03008KT 9999 FEW020 TN26/0907Z TX31/0914Z BECMG 0909/0911 06010KT BECMG 0914/0916 09015KT BECMG 0921/0923 06010KT RMK PEH

Orai ataskaitas ir orų prognozės (METAR, TAF).

turimą stotys yra geltonos ir raudonos taškus žemėlapyje.

Perkelti pele per norėdami pamatyti stoties vardą.

Tada spustelėkite, norėdami matyti oro stebėjimo ir prognozės.

Norėdami pakeisti žemėlapį: spustelėkite ant žalios mygtukų su juodo kryžiaus žemyn,; žalią mygtuką su brūkšneliu, jei norite nutolinti; arba žalių rodyklių gretimoms žemėlapius.


METAR-TAF: